sensor_id;sensor_type;location;lat;lon;timestamp;pressure;altitude;pressure_sealevel;temperature;humidity
47082;BME280;33066;49.296;14.470;2023-04-24T00:00:59;95972.50;;;16.47;40.30
47082;BME280;33066;49.296;14.470;2023-04-24T00:03:25;95966.79;;;16.31;41.01
47082;BME280;33066;49.296;14.470;2023-04-24T00:05:50;95960.09;;;16.32;41.29
47082;BME280;33066;49.296;14.470;2023-04-24T00:08:16;95962.17;;;16.33;41.66
47082;BME280;33066;49.296;14.470;2023-04-24T00:10:43;95954.20;;;16.28;42.06
47082;BME280;33066;49.296;14.470;2023-04-24T00:13:07;95950.79;;;16.52;42.14
47082;BME280;33066;49.296;14.470;2023-04-24T00:15:32;95957.92;;;16.59;42.10
47082;BME280;33066;49.296;14.470;2023-04-24T00:17:58;95949.85;;;16.73;41.93
47082;BME280;33066;49.296;14.470;2023-04-24T00:20:23;95944.58;;;16.67;41.75
47082;BME280;33066;49.296;14.470;2023-04-24T00:22:50;95944.81;;;16.64;41.49
47082;BME280;33066;49.296;14.470;2023-04-24T00:25:15;95941.67;;;16.74;41.36
47082;BME280;33066;49.296;14.470;2023-04-24T00:27:42;95943.24;;;16.78;41.34
47082;BME280;33066;49.296;14.470;2023-04-24T00:30:08;95935.81;;;16.88;41.13
47082;BME280;33066;49.296;14.470;2023-04-24T00:32:32;95925.97;;;16.91;41.10
47082;BME280;33066;49.296;14.470;2023-04-24T00:34:58;95921.65;;;17.00;41.03
47082;BME280;33066;49.296;14.470;2023-04-24T00:37:23;95924.08;;;17.07;40.98
47082;BME280;33066;49.296;14.470;2023-04-24T00:39:48;95926.81;;;17.12;40.96
47082;BME280;33066;49.296;14.470;2023-04-24T00:42:14;95923.95;;;16.92;40.88
47082;BME280;33066;49.296;14.470;2023-04-24T00:44:40;95926.22;;;17.10;40.61
47082;BME280;33066;49.296;14.470;2023-04-24T00:47:05;95925.88;;;16.97;40.14
47082;BME280;33066;49.296;14.470;2023-04-24T00:49:30;95925.53;;;16.94;40.23
47082;BME280;33066;49.296;14.470;2023-04-24T00:51:55;95923.48;;;16.84;40.39
47082;BME280;33066;49.296;14.470;2023-04-24T00:54:21;95925.37;;;16.78;40.62
47082;BME280;33066;49.296;14.470;2023-04-24T00:56:46;95926.50;;;16.71;40.78
47082;BME280;33066;49.296;14.470;2023-04-24T00:59:12;95924.93;;;16.83;40.93
47082;BME280;33066;49.296;14.470;2023-04-24T01:01:37;95921.98;;;16.62;40.75
47082;BME280;33066;49.296;14.470;2023-04-24T01:04:03;95920.58;;;16.55;40.86
47082;BME280;33066;49.296;14.470;2023-04-24T01:06:29;95919.53;;;16.44;40.93
47082;BME280;33066;49.296;14.470;2023-04-24T01:08:55;95919.05;;;16.60;41.05
47082;BME280;33066;49.296;14.470;2023-04-24T01:11:21;95916.54;;;16.65;41.01
47082;BME280;33066;49.296;14.470;2023-04-24T01:13:46;95912.99;;;16.66;40.95
47082;BME280;33066;49.296;14.470;2023-04-24T01:16:11;95912.75;;;16.54;41.08
47082;BME280;33066;49.296;14.470;2023-04-24T01:18:36;95908.03;;;16.46;41.21
47082;BME280;33066;49.296;14.470;2023-04-24T01:21:04;95904.96;;;16.31;41.37
47082;BME280;33066;49.296;14.470;2023-04-24T01:23:27;95902.66;;;16.28;41.46
47082;BME280;33066;49.296;14.470;2023-04-24T01:25:53;95899.63;;;16.39;41.66
47082;BME280;33066;49.296;14.470;2023-04-24T01:28:18;95901.11;;;16.09;41.80
47082;BME280;33066;49.296;14.470;2023-04-24T01:30:44;95897.92;;;15.98;41.97
47082;BME280;33066;49.296;14.470;2023-04-24T01:33:09;95896.22;;;16.03;42.02
47082;BME280;33066;49.296;14.470;2023-04-24T01:35:35;95893.67;;;16.29;42.06
47082;BME280;33066;49.296;14.470;2023-04-24T01:38:00;95895.18;;;16.02;42.17
47082;BME280;33066;49.296;14.470;2023-04-24T01:40:26;95901.37;;;16.21;42.33
47082;BME280;33066;49.296;14.470;2023-04-24T01:42:52;95900.48;;;16.21;42.23
47082;BME280;33066;49.296;14.470;2023-04-24T01:45:18;95896.22;;;16.34;41.98
47082;BME280;33066;49.296;14.470;2023-04-24T01:47:43;95898.54;;;16.28;41.97
47082;BME280;33066;49.296;14.470;2023-04-24T01:50:09;95898.48;;;16.04;41.87
47082;BME280;33066;49.296;14.470;2023-04-24T01:52:35;95898.36;;;16.25;41.85
47082;BME280;33066;49.296;14.470;2023-04-24T01:55:00;95898.51;;;16.15;42.07
47082;BME280;33066;49.296;14.470;2023-04-24T01:57:24;95899.40;;;16.08;42.16
47082;BME280;33066;49.296;14.470;2023-04-24T01:59:49;95895.63;;;16.22;42.00
47082;BME280;33066;49.296;14.470;2023-04-24T02:02:14;95895.88;;;16.22;41.88
47082;BME280;33066;49.296;14.470;2023-04-24T02:04:40;95890.16;;;16.21;41.84
47082;BME280;33066;49.296;14.470;2023-04-24T02:07:06;95888.97;;;16.20;41.75
47082;BME280;33066;49.296;14.470;2023-04-24T02:09:32;95894.62;;;16.11;41.71
47082;BME280;33066;49.296;14.470;2023-04-24T02:11:58;95896.71;;;16.02;41.86
47082;BME280;33066;49.296;14.470;2023-04-24T02:14:23;95897.13;;;16.16;41.67
47082;BME280;33066;49.296;14.470;2023-04-24T02:16:49;95892.37;;;16.03;41.50
47082;BME280;33066;49.296;14.470;2023-04-24T02:19:15;95887.50;;;16.18;41.29
47082;BME280;33066;49.296;14.470;2023-04-24T02:21:39;95887.84;;;16.25;41.18
47082;BME280;33066;49.296;14.470;2023-04-24T02:24:05;95890.41;;;16.53;41.12
47082;BME280;33066;49.296;14.470;2023-04-24T02:26:31;95884.74;;;16.61;41.04
47082;BME280;33066;49.296;14.470;2023-04-24T02:28:56;95888.99;;;16.33;41.08
47082;BME280;33066;49.296;14.470;2023-04-24T02:31:21;95886.40;;;16.39;41.03
47082;BME280;33066;49.296;14.470;2023-04-24T02:33:46;95886.10;;;16.43;40.97
47082;BME280;33066;49.296;14.470;2023-04-24T02:36:11;95888.46;;;16.73;40.87
47082;BME280;33066;49.296;14.470;2023-04-24T02:38:37;95886.02;;;16.30;40.88
47082;BME280;33066;49.296;14.470;2023-04-24T02:41:02;95881.40;;;16.29;40.97
47082;BME280;33066;49.296;14.470;2023-04-24T02:43:28;95882.02;;;16.58;40.96
47082;BME280;33066;49.296;14.470;2023-04-24T02:45:53;95883.50;;;16.35;40.89
47082;BME280;33066;49.296;14.470;2023-04-24T02:48:19;95885.56;;;16.54;40.93
47082;BME280;33066;49.296;14.470;2023-04-24T02:50:45;95885.54;;;16.72;40.83
47082;BME280;33066;49.296;14.470;2023-04-24T02:53:11;95884.92;;;16.47;40.81
47082;BME280;33066;49.296;14.470;2023-04-24T02:55:36;95886.68;;;16.51;40.95
47082;BME280;33066;49.296;14.470;2023-04-24T02:58:01;95886.03;;;15.83;41.22
47082;BME280;33066;49.296;14.470;2023-04-24T03:00:28;95887.55;;;16.24;41.36
47082;BME280;33066;49.296;14.470;2023-04-24T03:02:52;95883.50;;;16.15;41.43
47082;BME280;33066;49.296;14.470;2023-04-24T03:05:18;95881.53;;;16.21;41.50
47082;BME280;33066;49.296;14.470;2023-04-24T03:07:43;95878.38;;;16.05;41.34
47082;BME280;33066;49.296;14.470;2023-04-24T03:13:01;95871.54;;;16.35;40.93
47082;BME280;33066;49.296;14.470;2023-04-24T03:15:27;95868.47;;;16.38;41.16
47082;BME280;33066;49.296;14.470;2023-04-24T03:17:52;95865.17;;;16.10;41.53
47082;BME280;33066;49.296;14.470;2023-04-24T03:20:18;95862.01;;;16.04;41.64
47082;BME280;33066;49.296;14.470;2023-04-24T03:22:44;95860.96;;;15.85;41.86
47082;BME280;33066;49.296;14.470;2023-04-24T03:25:09;95857.95;;;15.67;42.09
47082;BME280;33066;49.296;14.470;2023-04-24T03:27:35;95856.87;;;15.63;42.18
47082;BME280;33066;49.296;14.470;2023-04-24T03:30:01;95858.33;;;15.64;42.20
47082;BME280;33066;49.296;14.470;2023-04-24T03:32:26;95857.00;;;15.67;42.16
47082;BME280;33066;49.296;14.470;2023-04-24T03:34:51;95856.87;;;15.60;42.24
47082;BME280;33066;49.296;14.470;2023-04-24T03:37:17;95856.69;;;15.60;42.30
47082;BME280;33066;49.296;14.470;2023-04-24T03:39:42;95853.34;;;15.61;42.27
47082;BME280;33066;49.296;14.470;2023-04-24T03:42:08;95851.49;;;15.59;42.28
47082;BME280;33066;49.296;14.470;2023-04-24T03:44:34;95852.44;;;15.58;42.28
47082;BME280;33066;49.296;14.470;2023-04-24T03:47:01;95854.11;;;15.54;42.31
47082;BME280;33066;49.296;14.470;2023-04-24T03:49:25;95857.59;;;15.57;42.27
47082;BME280;33066;49.296;14.470;2023-04-24T03:51:50;95857.96;;;15.73;42.04
47082;BME280;33066;49.296;14.470;2023-04-24T03:54:15;95860.54;;;15.72;42.07
47082;BME280;33066;49.296;14.470;2023-04-24T03:56:42;95858.52;;;15.68;42.08
47082;BME280;33066;49.296;14.470;2023-04-24T03:59:06;95861.38;;;15.78;41.95
47082;BME280;33066;49.296;14.470;2023-04-24T04:01:32;95864.29;;;15.73;41.96
47082;BME280;33066;49.296;14.470;2023-04-24T04:03:59;95865.01;;;15.64;42.15
47082;BME280;33066;49.296;14.470;2023-04-24T04:06:22;95868.16;;;15.57;42.34
47082;BME280;33066;49.296;14.470;2023-04-24T04:08:48;95870.07;;;15.57;42.48
47082;BME280;33066;49.296;14.470;2023-04-24T04:11:13;95870.68;;;15.77;42.51
47082;BME280;33066;49.296;14.470;2023-04-24T04:13:39;95869.85;;;15.69;42.52
47082;BME280;33066;49.296;14.470;2023-04-24T04:16:05;95871.18;;;15.76;42.53
47082;BME280;33066;49.296;14.470;2023-04-24T04:18:30;95871.48;;;15.81;42.35
47082;BME280;33066;49.296;14.470;2023-04-24T04:20:55;95873.66;;;15.85;42.37
47082;BME280;33066;49.296;14.470;2023-04-24T04:23:21;95875.16;;;15.62;42.27
47082;BME280;33066;49.296;14.470;2023-04-24T04:25:48;95877.48;;;15.76;42.02
47082;BME280;33066;49.296;14.470;2023-04-24T04:28:13;95878.42;;;15.72;42.10
47082;BME280;33066;49.296;14.470;2023-04-24T04:30:38;95878.25;;;15.93;42.14
47082;BME280;33066;49.296;14.470;2023-04-24T04:33:04;95882.30;;;15.74;42.10
47082;BME280;33066;49.296;14.470;2023-04-24T04:35:30;95883.14;;;15.97;42.11
47082;BME280;33066;49.296;14.470;2023-04-24T04:37:55;95884.15;;;15.92;42.26
47082;BME280;33066;49.296;14.470;2023-04-24T04:40:21;95889.97;;;15.99;42.23
47082;BME280;33066;49.296;14.470;2023-04-24T04:42:47;95890.67;;;16.07;42.14
47082;BME280;33066;49.296;14.470;2023-04-24T04:45:12;95891.70;;;16.06;42.31
47082;BME280;33066;49.296;14.470;2023-04-24T04:47:38;95894.56;;;16.01;42.40
47082;BME280;33066;49.296;14.470;2023-04-24T04:50:04;95897.46;;;15.97;42.39
47082;BME280;33066;49.296;14.470;2023-04-24T04:52:30;95902.22;;;16.08;42.34
47082;BME280;33066;49.296;14.470;2023-04-24T04:54:54;95902.84;;;16.15;42.30
47082;BME280;33066;49.296;14.470;2023-04-24T04:57:20;95901.23;;;16.03;42.14
47082;BME280;33066;49.296;14.470;2023-04-24T04:59:45;95902.68;;;16.30;42.02
47082;BME280;33066;49.296;14.470;2023-04-24T05:02:12;95905.43;;;16.26;41.75
47082;BME280;33066;49.296;14.470;2023-04-24T05:04:35;95905.78;;;16.40;41.43
47082;BME280;33066;49.296;14.470;2023-04-24T05:07:01;95907.74;;;16.80;41.17
47082;BME280;33066;49.296;14.470;2023-04-24T05:09:26;95907.41;;;16.41;40.92
47082;BME280;33066;49.296;14.470;2023-04-24T05:11:51;95909.83;;;16.41;40.97
47082;BME280;33066;49.296;14.470;2023-04-24T05:14:16;95912.38;;;16.49;40.97
47082;BME280;33066;49.296;14.470;2023-04-24T05:16:42;95914.25;;;16.55;40.88
47082;BME280;33066;49.296;14.470;2023-04-24T05:19:07;95916.27;;;16.53;40.99
47082;BME280;33066;49.296;14.470;2023-04-24T05:21:32;95921.25;;;16.74;41.13
47082;BME280;33066;49.296;14.470;2023-04-24T05:23:57;95924.27;;;16.76;41.13
47082;BME280;33066;49.296;14.470;2023-04-24T05:26:23;95929.60;;;16.46;41.34
47082;BME280;33066;49.296;14.470;2023-04-24T05:28:48;95933.87;;;16.51;41.38
47082;BME280;33066;49.296;14.470;2023-04-24T05:31:14;95935.57;;;16.73;41.20
47082;BME280;33066;49.296;14.470;2023-04-24T05:33:39;95935.97;;;16.55;41.24
47082;BME280;33066;49.296;14.470;2023-04-24T05:36:06;95939.35;;;16.53;41.47
47082;BME280;33066;49.296;14.470;2023-04-24T05:38:31;95940.77;;;16.77;41.31
47082;BME280;33066;49.296;14.470;2023-04-24T05:40:56;95938.32;;;16.67;41.64
47082;BME280;33066;49.296;14.470;2023-04-24T05:43:22;95941.50;;;16.34;41.87
47082;BME280;33066;49.296;14.470;2023-04-24T05:45:47;95945.00;;;16.54;42.01
47082;BME280;33066;49.296;14.470;2023-04-24T05:48:13;95947.56;;;16.40;42.23
47082;BME280;33066;49.296;14.470;2023-04-24T05:50:39;95949.93;;;16.68;42.40
47082;BME280;33066;49.296;14.470;2023-04-24T05:53:03;95948.79;;;16.51;42.02
47082;BME280;33066;49.296;14.470;2023-04-24T05:55:31;95948.85;;;16.68;42.06
47082;BME280;33066;49.296;14.470;2023-04-24T05:57:54;95949.78;;;16.43;42.23
47082;BME280;33066;49.296;14.470;2023-04-24T06:00:20;95952.38;;;16.37;42.16
47082;BME280;33066;49.296;14.470;2023-04-24T06:02:46;95955.61;;;16.63;42.16
47082;BME280;33066;49.296;14.470;2023-04-24T06:05:11;95958.24;;;16.68;42.30
47082;BME280;33066;49.296;14.470;2023-04-24T06:07:37;95957.87;;;16.36;42.51
47082;BME280;33066;49.296;14.470;2023-04-24T06:10:03;95958.91;;;16.35;42.58
47082;BME280;33066;49.296;14.470;2023-04-24T06:12:28;95960.08;;;16.30;42.72
47082;BME280;33066;49.296;14.470;2023-04-24T06:14:53;95966.57;;;16.25;42.91
47082;BME280;33066;49.296;14.470;2023-04-24T06:17:18;95973.30;;;16.29;42.90
47082;BME280;33066;49.296;14.470;2023-04-24T06:19:43;95973.88;;;16.34;42.87
47082;BME280;33066;49.296;14.470;2023-04-24T06:22:09;95975.01;;;16.63;42.85
47082;BME280;33066;49.296;14.470;2023-04-24T06:24:35;95976.45;;;16.26;42.79
47082;BME280;33066;49.296;14.470;2023-04-24T06:27:00;95977.48;;;16.30;42.80
47082;BME280;33066;49.296;14.470;2023-04-24T06:29:26;95977.09;;;16.23;42.78
47082;BME280;33066;49.296;14.470;2023-04-24T06:31:51;95980.86;;;16.73;42.79
47082;BME280;33066;49.296;14.470;2023-04-24T06:34:17;95981.66;;;16.46;42.94
47082;BME280;33066;49.296;14.470;2023-04-24T06:36:42;95979.49;;;16.50;42.98
47082;BME280;33066;49.296;14.470;2023-04-24T06:39:08;95976.81;;;16.33;42.92
47082;BME280;33066;49.296;14.470;2023-04-24T06:41:33;95979.83;;;16.37;42.96
47082;BME280;33066;49.296;14.470;2023-04-24T06:43:58;95976.90;;;16.75;43.30
47082;BME280;33066;49.296;14.470;2023-04-24T06:46:24;95975.06;;;16.78;42.90
47082;BME280;33066;49.296;14.470;2023-04-24T06:48:50;95974.90;;;16.41;42.77
47082;BME280;33066;49.296;14.470;2023-04-24T06:51:15;95975.49;;;16.78;42.65
47082;BME280;33066;49.296;14.470;2023-04-24T06:53:40;95973.17;;;16.94;42.80
47082;BME280;33066;49.296;14.470;2023-04-24T06:56:05;95972.20;;;17.00;42.38
47082;BME280;33066;49.296;14.470;2023-04-24T06:58:31;95970.32;;;17.04;42.31
47082;BME280;33066;49.296;14.470;2023-04-24T07:00:56;95969.30;;;17.11;42.31
47082;BME280;33066;49.296;14.470;2023-04-24T07:03:21;95970.38;;;17.20;42.45
47082;BME280;33066;49.296;14.470;2023-04-24T07:05:48;95973.99;;;16.85;42.95
47082;BME280;33066;49.296;14.470;2023-04-24T07:08:13;95973.96;;;17.46;42.53
47082;BME280;33066;49.296;14.470;2023-04-24T07:10:38;95973.43;;;17.34;42.12
47082;BME280;33066;49.296;14.470;2023-04-24T07:13:04;95973.61;;;17.61;42.09
47082;BME280;33066;49.296;14.470;2023-04-24T07:15:29;95973.31;;;17.16;42.08
47082;BME280;33066;49.296;14.470;2023-04-24T07:17:54;95973.81;;;17.72;42.29
47082;BME280;33066;49.296;14.470;2023-04-24T07:20:19;95973.68;;;17.74;42.23
47082;BME280;33066;49.296;14.470;2023-04-24T07:22:45;95974.41;;;17.61;42.44
47082;BME280;33066;49.296;14.470;2023-04-24T07:25:10;95976.02;;;17.30;42.39
47082;BME280;33066;49.296;14.470;2023-04-24T07:27:37;95974.93;;;17.51;41.62
47082;BME280;33066;49.296;14.470;2023-04-24T07:30:01;95974.33;;;17.65;41.27
47082;BME280;33066;49.296;14.470;2023-04-24T07:32:27;95975.15;;;17.54;41.93
47082;BME280;33066;49.296;14.470;2023-04-24T07:34:51;95973.56;;;17.45;42.01
47082;BME280;33066;49.296;14.470;2023-04-24T07:37:16;95972.50;;;17.40;41.25
47082;BME280;33066;49.296;14.470;2023-04-24T07:39:41;95976.17;;;17.53;41.60
47082;BME280;33066;49.296;14.470;2023-04-24T07:42:06;95977.56;;;17.91;42.16
47082;BME280;33066;49.296;14.470;2023-04-24T07:44:32;95978.20;;;17.74;41.62
47082;BME280;33066;49.296;14.470;2023-04-24T07:46:57;95975.17;;;17.77;41.47
47082;BME280;33066;49.296;14.470;2023-04-24T07:49:22;95975.97;;;17.77;41.23
47082;BME280;33066;49.296;14.470;2023-04-24T07:51:49;95977.05;;;17.87;41.50
47082;BME280;33066;49.296;14.470;2023-04-24T07:54:13;95975.95;;;17.94;41.25
47082;BME280;33066;49.296;14.470;2023-04-24T07:56:41;95977.97;;;17.97;41.35
47082;BME280;33066;49.296;14.470;2023-04-24T07:59:03;95979.43;;;17.87;40.56
47082;BME280;33066;49.296;14.470;2023-04-24T08:01:28;95978.06;;;17.87;40.98
47082;BME280;33066;49.296;14.470;2023-04-24T08:03:54;95981.01;;;17.98;40.93
47082;BME280;33066;49.296;14.470;2023-04-24T08:06:19;95981.87;;;18.05;40.69
47082;BME280;33066;49.296;14.470;2023-04-24T08:08:44;95984.26;;;18.15;40.60
47082;BME280;33066;49.296;14.470;2023-04-24T08:11:09;95982.68;;;18.31;40.68
47082;BME280;33066;49.296;14.470;2023-04-24T08:13:34;95982.46;;;18.39;40.89
47082;BME280;33066;49.296;14.470;2023-04-24T08:16:00;95983.64;;;18.37;40.92
47082;BME280;33066;49.296;14.470;2023-04-24T08:18:25;95983.02;;;18.75;40.07
47082;BME280;33066;49.296;14.470;2023-04-24T08:20:50;95985.35;;;18.67;39.70
47082;BME280;33066;49.296;14.470;2023-04-24T08:23:15;95982.59;;;18.68;39.26
47082;BME280;33066;49.296;14.470;2023-04-24T08:25:41;95981.46;;;18.69;39.61
47082;BME280;33066;49.296;14.470;2023-04-24T08:28:10;95983.34;;;18.82;39.45
47082;BME280;33066;49.296;14.470;2023-04-24T08:30:32;95984.97;;;18.70;39.61
47082;BME280;33066;49.296;14.470;2023-04-24T08:32:57;95986.99;;;19.01;39.33
47082;BME280;33066;49.296;14.470;2023-04-24T08:35:22;95988.13;;;18.94;39.36
47082;BME280;33066;49.296;14.470;2023-04-24T08:37:47;95985.20;;;19.21;39.29
47082;BME280;33066;49.296;14.470;2023-04-24T08:40:14;95987.49;;;19.13;38.91
47082;BME280;33066;49.296;14.470;2023-04-24T08:42:41;95984.39;;;19.20;38.59
47082;BME280;33066;49.296;14.470;2023-04-24T08:45:04;95983.59;;;19.32;38.10
47082;BME280;33066;49.296;14.470;2023-04-24T08:47:31;95985.66;;;19.69;38.48
47082;BME280;33066;49.296;14.470;2023-04-24T08:49:54;95991.94;;;19.57;38.71
47082;BME280;33066;49.296;14.470;2023-04-24T08:52:19;95990.12;;;19.53;37.92
47082;BME280;33066;49.296;14.470;2023-04-24T08:54:45;95987.83;;;19.44;38.34
47082;BME280;33066;49.296;14.470;2023-04-24T08:57:10;95988.73;;;19.33;38.17
47082;BME280;33066;49.296;14.470;2023-04-24T08:59:35;95987.31;;;19.67;37.41
47082;BME280;33066;49.296;14.470;2023-04-24T09:02:01;95986.58;;;19.26;38.03
47082;BME280;33066;49.296;14.470;2023-04-24T09:04:25;95984.88;;;19.42;39.34
47082;BME280;33066;49.296;14.470;2023-04-24T09:06:51;95980.87;;;19.24;38.90
47082;BME280;33066;49.296;14.470;2023-04-24T09:09:17;95982.97;;;19.07;39.32
47082;BME280;33066;49.296;14.470;2023-04-24T09:11:42;95984.02;;;19.02;38.24
47082;BME280;33066;49.296;14.470;2023-04-24T09:14:09;95984.97;;;19.05;38.84
47082;BME280;33066;49.296;14.470;2023-04-24T09:16:32;95983.28;;;18.88;39.33
47082;BME280;33066;49.296;14.470;2023-04-24T09:18:57;95980.86;;;19.10;39.10
47082;BME280;33066;49.296;14.470;2023-04-24T09:21:23;95981.30;;;19.02;39.43
47082;BME280;33066;49.296;14.470;2023-04-24T09:23:58;95981.62;;;19.03;39.80
47082;BME280;33066;49.296;14.470;2023-04-24T09:26:13;95985.08;;;18.97;39.60
47082;BME280;33066;49.296;14.470;2023-04-24T09:28:41;95988.92;;;18.88;39.51
47082;BME280;33066;49.296;14.470;2023-04-24T09:31:05;95988.43;;;19.11;40.16
47082;BME280;33066;49.296;14.470;2023-04-24T09:33:29;95988.01;;;18.60;39.57
47082;BME280;33066;49.296;14.470;2023-04-24T09:35:54;95983.69;;;18.70;40.67
47082;BME280;33066;49.296;14.470;2023-04-24T09:38:22;95983.13;;;19.06;41.08
47082;BME280;33066;49.296;14.470;2023-04-24T09:40:44;95981.62;;;19.21;40.23
47082;BME280;33066;49.296;14.470;2023-04-24T09:43:11;95985.92;;;19.16;39.58
47082;BME280;33066;49.296;14.470;2023-04-24T09:45:35;95989.19;;;19.06;39.97
47082;BME280;33066;49.296;14.470;2023-04-24T09:48:00;95989.30;;;19.20;39.33
47082;BME280;33066;49.296;14.470;2023-04-24T09:50:25;95988.39;;;19.21;39.10
47082;BME280;33066;49.296;14.470;2023-04-24T09:52:56;95985.38;;;19.30;39.65
47082;BME280;33066;49.296;14.470;2023-04-24T09:55:18;95985.56;;;19.40;39.26
47082;BME280;33066;49.296;14.470;2023-04-24T09:57:47;95985.93;;;19.51;38.77
47082;BME280;33066;49.296;14.470;2023-04-24T10:00:07;95982.27;;;19.42;38.89
47082;BME280;33066;49.296;14.470;2023-04-24T10:02:31;95981.78;;;19.34;38.79
47082;BME280;33066;49.296;14.470;2023-04-24T10:04:57;95979.07;;;19.46;38.74
47082;BME280;33066;49.296;14.470;2023-04-24T10:07:21;95975.19;;;19.54;38.32
47082;BME280;33066;49.296;14.470;2023-04-24T10:09:46;95973.43;;;19.36;38.27
47082;BME280;33066;49.296;14.470;2023-04-24T10:12:12;95971.78;;;19.80;37.55
47082;BME280;33066;49.296;14.470;2023-04-24T10:14:37;95974.90;;;19.73;37.79
47082;BME280;33066;49.296;14.470;2023-04-24T10:17:03;95972.73;;;19.92;37.22
47082;BME280;33066;49.296;14.470;2023-04-24T10:19:29;95972.06;;;20.09;37.02
47082;BME280;33066;49.296;14.470;2023-04-24T10:21:54;95973.32;;;20.59;36.54
47082;BME280;33066;49.296;14.470;2023-04-24T10:24:19;95972.66;;;20.23;36.58
47082;BME280;33066;49.296;14.470;2023-04-24T10:26:44;95969.14;;;20.44;36.54
47082;BME280;33066;49.296;14.470;2023-04-24T10:29:08;95970.68;;;20.69;35.59
47082;BME280;33066;49.296;14.470;2023-04-24T10:31:33;95970.47;;;20.69;35.32
47082;BME280;33066;49.296;14.470;2023-04-24T10:34:00;95970.24;;;21.07;35.29
47082;BME280;33066;49.296;14.470;2023-04-24T10:36:24;95970.49;;;20.62;35.08
47082;BME280;33066;49.296;14.470;2023-04-24T10:38:49;95967.20;;;20.72;35.29
47082;BME280;33066;49.296;14.470;2023-04-24T10:41:18;95967.62;;;20.69;35.10
47082;BME280;33066;49.296;14.470;2023-04-24T10:43:40;95963.95;;;20.36;35.39
47082;BME280;33066;49.296;14.470;2023-04-24T10:46:08;95965.51;;;19.91;35.31
47082;BME280;33066;49.296;14.470;2023-04-24T10:48:31;95964.13;;;19.69;35.80
47082;BME280;33066;49.296;14.470;2023-04-24T10:50:56;95967.05;;;19.47;37.19
47082;BME280;33066;49.296;14.470;2023-04-24T10:53:21;95967.57;;;19.37;37.48
47082;BME280;33066;49.296;14.470;2023-04-24T10:55:48;95963.72;;;19.20;37.63
47082;BME280;33066;49.296;14.470;2023-04-24T10:58:11;95965.99;;;18.99;38.50
47082;BME280;33066;49.296;14.470;2023-04-24T11:00:38;95962.93;;;18.88;36.96
47082;BME280;33066;49.296;14.470;2023-04-24T11:03:01;95960.08;;;18.72;37.89
47082;BME280;33066;49.296;14.470;2023-04-24T11:10:25;95958.86;;;19.26;37.47
47082;BME280;33066;49.296;14.470;2023-04-24T11:12:41;95956.16;;;19.64;38.23
47082;BME280;33066;49.296;14.470;2023-04-24T11:15:12;95956.95;;;19.60;38.09
47082;BME280;33066;49.296;14.470;2023-04-24T11:17:33;95954.84;;;19.62;38.19
47082;BME280;33066;49.296;14.470;2023-04-24T11:20:03;95953.32;;;19.92;37.41
47082;BME280;33066;49.296;14.470;2023-04-24T11:22:23;95952.48;;;19.83;37.85
47082;BME280;33066;49.296;14.470;2023-04-24T11:24:50;95950.10;;;20.35;37.98
47082;BME280;33066;49.296;14.470;2023-04-24T11:27:15;95950.62;;;20.05;37.45
47082;BME280;33066;49.296;14.470;2023-04-24T11:29:42;95949.89;;;20.28;36.96
47082;BME280;33066;49.296;14.470;2023-04-24T11:34:29;95944.40;;;19.99;37.67
47082;BME280;33066;49.296;14.470;2023-04-24T11:36:53;95950.20;;;19.98;38.29
47082;BME280;33066;49.296;14.470;2023-04-24T11:39:18;95946.60;;;20.24;37.91
47082;BME280;33066;49.296;14.470;2023-04-24T11:41:43;95945.75;;;20.37;37.59
47082;BME280;33066;49.296;14.470;2023-04-24T11:44:09;95951.09;;;20.75;36.55
47082;BME280;33066;49.296;14.470;2023-04-24T11:46:33;95943.36;;;21.03;35.48
47082;BME280;33066;49.296;14.470;2023-04-24T11:48:59;95940.97;;;21.05;34.50
47082;BME280;33066;49.296;14.470;2023-04-24T11:51:25;95939.08;;;21.33;33.99
47082;BME280;33066;49.296;14.470;2023-04-24T11:53:49;95936.80;;;21.58;35.49
47082;BME280;33066;49.296;14.470;2023-04-24T11:56:18;95931.85;;;20.73;34.98
47082;BME280;33066;49.296;14.470;2023-04-24T11:58:39;95960.87;;;20.79;34.83
47082;BME280;33066;49.296;14.470;2023-04-24T12:01:05;95972.60;;;20.46;34.70
47082;BME280;33066;49.296;14.470;2023-04-24T12:03:29;95969.77;;;19.82;34.04
47082;BME280;33066;49.296;14.470;2023-04-24T12:06:04;95968.15;;;19.11;34.31
47082;BME280;33066;49.296;14.470;2023-04-24T12:08:28;95981.49;;;18.24;34.86
47082;BME280;33066;49.296;14.470;2023-04-24T12:10:44;95985.18;;;18.33;35.35
47082;BME280;33066;49.296;14.470;2023-04-24T12:13:10;95990.79;;;17.95;35.63
47082;BME280;33066;49.296;14.470;2023-04-24T12:15:35;95990.53;;;17.79;35.87
47082;BME280;33066;49.296;14.470;2023-04-24T12:18:00;95975.77;;;18.07;36.05
47082;BME280;33066;49.296;14.470;2023-04-24T12:20:28;95986.18;;;17.80;34.51
47082;BME280;33066;49.296;14.470;2023-04-24T12:22:52;95986.77;;;17.79;35.10
47082;BME280;33066;49.296;14.470;2023-04-24T12:25:17;95989.54;;;17.77;34.41
47082;BME280;33066;49.296;14.470;2023-04-24T12:27:41;96002.45;;;17.32;33.67
47082;BME280;33066;49.296;14.470;2023-04-24T12:30:11;96005.22;;;17.22;34.18
47082;BME280;33066;49.296;14.470;2023-04-24T12:32:32;96002.21;;;17.36;34.23
47082;BME280;33066;49.296;14.470;2023-04-24T12:34:57;96004.92;;;17.87;33.92
47082;BME280;33066;49.296;14.470;2023-04-24T12:37:23;96011.09;;;17.85;34.28
47082;BME280;33066;49.296;14.470;2023-04-24T12:39:58;96003.27;;;18.33;33.89
47082;BME280;33066;49.296;14.470;2023-04-24T12:42:13;96005.93;;;18.92;33.31
47082;BME280;33066;49.296;14.470;2023-04-24T12:44:37;96004.00;;;18.87;32.03
47082;BME280;33066;49.296;14.470;2023-04-24T12:47:04;95996.51;;;18.73;31.34
47082;BME280;33066;49.296;14.470;2023-04-24T12:49:29;96006.16;;;18.74;31.43